Time;durP1;ratioP1;P1;durP2;ratioP2;P2;SDS_P1;SDS_P2;PMS_P1;PMS_P2;Temp;Humidity;BMP_temperature;BMP_pressure;BME280_temperature;BME280_humidity;BME280_pressure;Samples;Min_cycle;Max_cycle;Signal;HPM_P1;HPM_P2
2023/10/29 00:01:03;;;;;;;4.90;4.20;;;;;;;;;;6184733;23;20197;-89
2023/10/29 00:03:32;;;;;;;4.60;3.30;;;;;;;;;;6185896;23;20175;-90
2023/10/29 00:06:00;;;;;;;3.50;3.20;;;;;;;;;;6185249;23;20171;-90
2023/10/29 00:08:29;;;;;;;3.63;2.63;;;;;;;;;;6185388;23;20175;-90
2023/10/29 00:10:57;;;;;;;4.13;3.73;;;;;;;;;;6186074;23;20183;-90
2023/10/29 00:13:26;;;;;;;4.83;4.00;;;;;;;;;;6185865;23;20179;-90
2023/10/29 00:15:56;;;;;;;4.47;4.07;;;;;;;;;;6185305;23;20199;-90
2023/10/29 00:18:24;;;;;;;4.23;3.83;;;;;;;;;;6184800;23;20182;-90
2023/10/29 00:20:53;;;;;;;3.80;3.33;;;;;;;;;;6185214;23;20285;-90
2023/10/29 00:23:21;;;;;;;3.57;3.20;;;;;;;;;;6185648;23;20205;-90
2023/10/29 00:25:50;;;;;;;3.40;2.90;;;;;;;;;;6184993;23;20244;-90
2023/10/29 00:28:18;;;;;;;3.33;2.53;;;;;;;;;;6184902;23;20198;-89
2023/10/29 00:30:47;;;;;;;4.20;2.80;;;;;;;;;;6185411;23;20234;-90
2023/10/29 00:33:17;;;;;;;4.00;3.50;;;;;;;;;;6185806;23;20171;-90
2023/10/29 00:35:45;;;;;;;3.53;3.23;;;;;;;;;;6184274;23;20194;-90
2023/10/29 00:38:14;;;;;;;5.87;3.80;;;;;;;;;;6185017;23;20182;-90
2023/10/29 00:40:42;;;;;;;3.47;2.97;;;;;;;;;;6185038;23;20186;-89
2023/10/29 00:43:14;;;;;;;6.20;2.27;;;;;;;;;;6185503;23;20179;-89
2023/10/29 00:45:42;;;;;;;3.57;3.27;;;;;;;;;;6184447;23;20202;-90
2023/10/29 00:48:11;;;;;;;4.67;2.70;;;;;;;;;;6185297;23;20186;-90
2023/10/29 00:50:41;;;;;;;3.43;2.40;;;;;;;;;;6184915;23;20171;-91
2023/10/29 00:53:10;;;;;;;8.97;3.67;;;;;;;;;;6184614;23;20172;-90
2023/10/29 00:55:39;;;;;;;2.87;1.93;;;;;;;;;;6184236;23;20183;-90
2023/10/29 00:58:08;;;;;;;4.30;2.40;;;;;;;;;;6184854;23;20226;-90
2023/10/29 01:00:36;;;;;;;3.83;1.80;;;;;;;;;;6185299;23;20182;-90
2023/10/29 01:03:05;;;;;;;3.13;2.27;;;;;;;;;;6185225;23;20183;-89
2023/10/29 01:05:33;;;;;;;3.23;2.17;;;;;;;;;;6184565;23;20245;-88
2023/10/29 01:08:05;;;;;;;4.37;2.50;;;;;;;;;;6184802;23;20179;-90
2023/10/29 01:10:34;;;;;;;6.10;2.43;;;;;;;;;;6185398;23;20182;-90
2023/10/29 01:13:02;;;;;;;4.63;2.80;;;;;;;;;;6184598;23;20180;-89
2023/10/29 01:15:32;;;;;;;3.00;2.30;;;;;;;;;;6184279;23;20199;-90
2023/10/29 01:18:01;;;;;;;2.77;1.97;;;;;;;;;;6184798;23;20187;-89
2023/10/29 01:20:30;;;;;;;4.93;2.50;;;;;;;;;;6184681;23;20218;-90
2023/10/29 01:22:58;;;;;;;2.97;2.53;;;;;;;;;;6184983;23;20186;-89
2023/10/29 01:25:29;;;;;;;4.97;2.13;;;;;;;;;;6184032;23;20175;-90
2023/10/29 01:27:59;;;;;;;1.67;1.57;;;;;;;;;;6185048;23;20180;-90
2023/10/29 01:30:28;;;;;;;4.97;2.27;;;;;;;;;;6185115;23;20206;-89
2023/10/29 01:32:56;;;;;;;5.03;1.97;;;;;;;;;;6184918;23;20182;-89
2023/10/29 01:35:25;;;;;;;3.83;2.13;;;;;;;;;;6183969;23;20245;-89
2023/10/29 01:37:53;;;;;;;3.23;2.00;;;;;;;;;;6184898;23;20171;-90
2023/10/29 01:40:22;;;;;;;2.63;1.97;;;;;;;;;;6184780;23;20171;-90
2023/10/29 01:42:52;;;;;;;3.00;1.80;;;;;;;;;;6184474;23;20180;-90
2023/10/29 01:45:20;;;;;;;4.80;2.23;;;;;;;;;;6184525;23;20218;-89
2023/10/29 01:47:49;;;;;;;3.33;2.00;;;;;;;;;;6184568;23;20207;-90
2023/10/29 01:50:17;;;;;;;2.30;1.40;;;;;;;;;;6184883;23;20176;-89
2023/10/29 01:52:46;;;;;;;3.37;2.33;;;;;;;;;;6184089;23;20190;-90
2023/10/29 01:55:14;;;;;;;2.53;1.93;;;;;;;;;;6184404;23;20196;-89
2023/10/29 01:57:43;;;;;;;3.03;2.17;;;;;;;;;;6184627;23;20180;-89
2023/10/29 02:00:14;;;;;;;2.83;1.70;;;;;;;;;;6184952;23;20179;-90
2023/10/29 02:02:44;;;;;;;2.13;1.70;;;;;;;;;;6183988;23;20179;-89
2023/10/29 02:05:13;;;;;;;2.97;1.83;;;;;;;;;;6184388;23;20171;-90
2023/10/29 02:07:41;;;;;;;2.17;1.40;;;;;;;;;;6184962;23;20215;-90
2023/10/29 02:10:10;;;;;;;2.53;1.50;;;;;;;;;;6184701;23;20187;-90
2023/10/29 02:12:39;;;;;;;2.70;2.03;;;;;;;;;;6183939;23;20179;-89
2023/10/29 02:15:07;;;;;;;3.53;2.00;;;;;;;;;;6184559;23;20223;-89
2023/10/29 02:17:37;;;;;;;2.77;1.40;;;;;;;;;;6184663;23;20226;-90
2023/10/29 02:20:07;;;;;;;2.40;1.80;;;;;;;;;;6184352;23;20214;-90
2023/10/29 02:22:37;;;;;;;4.07;1.60;;;;;;;;;;6184041;23;20180;-90
2023/10/29 02:25:06;;;;;;;2.20;1.70;;;;;;;;;;6184628;23;20198;-89
2023/10/29 02:27:34;;;;;;;2.13;1.93;;;;;;;;;;6184315;23;20223;-90
2023/10/29 02:30:03;;;;;;;5.60;1.90;;;;;;;;;;6184611;23;20271;-89
2023/10/29 02:32:32;;;;;;;2.73;2.03;;;;;;;;;;6183870;23;20187;-89
2023/10/29 02:35:00;;;;;;;1.90;1.70;;;;;;;;;;6184727;23;20227;-90
2023/10/29 02:37:29;;;;;;;2.17;1.80;;;;;;;;;;6184650;23;20177;-88
2023/10/29 02:39:58;;;;;;;3.30;1.57;;;;;;;;;;6184571;23;20179;-88
2023/10/29 02:42:27;;;;;;;2.00;1.60;;;;;;;;;;6183876;23;20194;-90
2023/10/29 02:44:55;;;;;;;2.90;1.80;;;;;;;;;;6184430;23;20173;-89
2023/10/29 02:47:24;;;;;;;1.47;1.27;;;;;;;;;;6184472;23;20288;-90
2023/10/29 02:49:52;;;;;;;1.30;0.90;;;;;;;;;;6184279;23;20175;-89
2023/10/29 02:52:21;;;;;;;4.87;1.50;;;;;;;;;;6183877;23;20167;-90
2023/10/29 02:54:49;;;;;;;1.53;1.10;;;;;;;;;;6184754;23;20323;-90
2023/10/29 02:57:19;;;;;;;2.23;1.40;;;;;;;;;;6184832;23;20175;-90
2023/10/29 02:59:48;;;;;;;2.57;0.97;;;;;;;;;;6184316;23;20175;-90
2023/10/29 03:02:16;;;;;;;1.60;1.20;;;;;;;;;;6184012;23;20202;-91
2023/10/29 03:04:45;;;;;;;2.10;0.90;;;;;;;;;;6184280;23;20263;-90
2023/10/29 03:07:14;;;;;;;1.97;1.23;;;;;;;;;;6184239;23;20171;-90
2023/10/29 03:09:42;;;;;;;1.67;1.40;;;;;;;;;;6184350;23;20183;-90
2023/10/29 03:12:12;;;;;;;1.80;1.27;;;;;;;;;;6184140;23;20180;-89
2023/10/29 03:14:42;;;;;;;1.40;1.13;;;;;;;;;;6184363;23;20180;-90
2023/10/29 03:17:10;;;;;;;1.67;1.10;;;;;;;;;;6184313;23;20272;-90
2023/10/29 03:19:39;;;;;;;4.20;1.40;;;;;;;;;;6183103;23;20196;-87
2023/10/29 03:22:07;;;;;;;1.97;1.20;;;;;;;;;;6183768;23;20176;-89
2023/10/29 03:24:36;;;;;;;1.47;1.20;;;;;;;;;;6184292;23;20171;-89
2023/10/29 03:27:04;;;;;;;3.30;1.27;;;;;;;;;;6184104;23;20167;-90
2023/10/29 03:29:33;;;;;;;2.63;1.10;;;;;;;;;;6183564;23;20202;-90
2023/10/29 03:32:03;;;;;;;1.17;1.10;;;;;;;;;;6184119;23;20209;-89
2023/10/29 03:34:32;;;;;;;2.47;1.10;;;;;;;;;;6183947;23;20180;-89
2023/10/29 03:37:00;;;;;;;1.00;0.93;;;;;;;;;;6183767;23;20214;-90
2023/10/29 03:39:30;;;;;;;2.17;1.37;;;;;;;;;;6183835;23;20179;-89
2023/10/29 03:41:59;;;;;;;3.07;2.07;;;;;;;;;;6183574;23;20171;-89
2023/10/29 03:44:27;;;;;;;1.93;1.43;;;;;;;;;;6184248;23;20206;-88
2023/10/29 03:46:56;;;;;;;1.13;1.03;;;;;;;;;;6183749;23;20171;-89
2023/10/29 03:49:26;;;;;;;1.27;1.03;;;;;;;;;;6183248;23;20182;-90
2023/10/29 03:51:54;;;;;;;1.97;1.30;;;;;;;;;;6183718;23;20179;-90
2023/10/29 03:54:23;;;;;;;1.10;0.87;;;;;;;;;;6183763;23;20171;-90
2023/10/29 03:56:51;;;;;;;1.03;1.03;;;;;;;;;;6184485;23;20194;-90
2023/10/29 03:59:20;;;;;;;2.00;1.30;;;;;;;;;;6183794;23;20229;-90
2023/10/29 04:01:48;;;;;;;1.30;1.20;;;;;;;;;;6183641;23;20183;-90
2023/10/29 04:04:17;;;;;;;1.73;1.10;;;;;;;;;;6184183;23;20202;-89
2023/10/29 04:06:47;;;;;;;2.97;1.40;;;;;;;;;;6183866;23;20170;-92
2023/10/29 04:09:16;;;;;;;0.83;0.83;;;;;;;;;;6183175;23;20175;-90
2023/10/29 04:11:45;;;;;;;1.00;1.00;;;;;;;;;;6183540;23;20171;-90
2023/10/29 04:14:13;;;;;;;4.53;1.50;;;;;;;;;;6184455;23;20183;-90
2023/10/29 04:16:42;;;;;;;1.53;1.23;;;;;;;;;;6183080;23;20191;-90
2023/10/29 04:19:10;;;;;;;3.93;1.63;;;;;;;;;;6183197;23;20281;-89
2023/10/29 04:21:39;;;;;;;1.73;1.37;;;;;;;;;;6183317;23;20222;-90
2023/10/29 04:24:09;;;;;;;2.07;1.40;;;;;;;;;;6184169;23;20177;-90
2023/10/29 04:26:38;;;;;;;2.17;1.70;;;;;;;;;;6183575;23;20168;-89
2023/10/29 04:29:06;;;;;;;4.07;1.80;;;;;;;;;;6183628;23;20175;-90
2023/10/29 04:31:35;;;;;;;2.17;1.90;;;;;;;;;;6183040;23;20179;-89
2023/10/29 04:34:03;;;;;;;2.57;1.53;;;;;;;;;;6183892;23;20183;-89
2023/10/29 04:36:32;;;;;;;2.30;1.50;;;;;;;;;;6183490;23;20197;-90
2023/10/29 04:39:00;;;;;;;2.17;1.77;;;;;;;;;;6183767;23;20202;-90
2023/10/29 04:41:30;;;;;;;1.80;1.30;;;;;;;;;;6183633;23;20180;-89
2023/10/29 04:43:59;;;;;;;2.20;1.17;;;;;;;;;;6183734;23;20262;-89
2023/10/29 04:46:27;;;;;;;2.40;1.47;;;;;;;;;;6183581;23;20206;-88
2023/10/29 04:48:56;;;;;;;2.03;1.00;;;;;;;;;;6184566;23;20182;-88
2023/10/29 04:51:24;;;;;;;1.30;1.20;;;;;;;;;;6184712;23;20180;-89
2023/10/29 04:53:53;;;;;;;2.53;1.53;;;;;;;;;;6185605;23;20179;-89
2023/10/29 04:56:22;;;;;;;1.73;0.90;;;;;;;;;;6185031;23;20234;-90
2023/10/29 04:58:52;;;;;;;1.63;1.40;;;;;;;;;;6184572;23;20226;-90
2023/10/29 05:01:20;;;;;;;2.00;1.23;;;;;;;;;;6184947;23;20177;-90
2023/10/29 05:03:49;;;;;;;2.93;1.60;;;;;;;;;;6185101;23;20200;-90
2023/10/29 05:06:20;;;;;;;1.70;0.90;;;;;;;;;;6185015;23;20179;-90
2023/10/29 05:08:49;;;;;;;2.47;1.37;;;;;;;;;;6185090;23;20185;-89
2023/10/29 05:11:18;;;;;;;3.87;1.57;;;;;;;;;;6185059;23;20202;-89
2023/10/29 05:13:47;;;;;;;3.30;1.67;;;;;;;;;;6184980;23;20182;-88
2023/10/29 05:16:17;;;;;;;2.93;1.40;;;;;;;;;;6184257;23;20222;-89
2023/10/29 05:18:45;;;;;;;1.53;1.00;;;;;;;;;;6184317;23;20195;-89
2023/10/29 05:21:14;;;;;;;2.53;1.43;;;;;;;;;;6184429;23;20218;-90
2023/10/29 05:23:42;;;;;;;1.73;1.23;;;;;;;;;;6184542;23;20172;-89
2023/10/29 05:26:11;;;;;;;3.33;1.37;;;;;;;;;;6184435;23;20183;-89
2023/10/29 05:28:39;;;;;;;2.57;1.40;;;;;;;;;;6184174;23;20182;-89
2023/10/29 05:31:07;;;;;;;1.23;1.00;;;;;;;;;;6184928;23;20179;-89
2023/10/29 05:33:37;;;;;;;2.23;1.13;;;;;;;;;;6184536;23;20183;-89
2023/10/29 05:36:06;;;;;;;3.33;1.40;;;;;;;;;;6183696;23;20182;-89
2023/10/29 05:38:36;;;;;;;1.80;1.53;;;;;;;;;;6183795;23;20203;-89
2023/10/29 05:41:05;;;;;;;4.07;2.33;;;;;;;;;;6184679;23;20274;-90
2023/10/29 05:43:36;;;;;;;2.63;1.40;;;;;;;;;;6184724;23;20198;-89
2023/10/29 05:46:05;;;;;;;3.83;1.80;;;;;;;;;;6183546;23;20258;-90
2023/10/29 05:48:33;;;;;;;5.13;2.33;;;;;;;;;;6184429;23;20195;-89
2023/10/29 05:51:03;;;;;;;3.07;1.80;;;;;;;;;;6184675;23;20190;-90
2023/10/29 05:53:32;;;;;;;2.27;1.67;;;;;;;;;;6184425;23;20246;-90
2023/10/29 05:56:01;;;;;;;2.53;1.47;;;;;;;;;;6183677;23;20202;-90
2023/10/29 05:58:29;;;;;;;3.93;1.80;;;;;;;;;;6183961;23;20195;-90
2023/10/29 06:00:58;;;;;;;4.33;1.57;;;;;;;;;;6184837;23;20187;-89
2023/10/29 06:03:27;;;;;;;4.13;2.00;;;;;;;;;;6185139;23;20175;-90
2023/10/29 06:05:56;;;;;;;3.33;1.57;;;;;;;;;;6183984;23;20178;-88
2023/10/29 06:08:26;;;;;;;6.40;2.27;;;;;;;;;;6184705;23;20175;-90
2023/10/29 06:10:54;;;;;;;7.07;2.43;;;;;;;;;;6184632;23;20185;-90
2023/10/29 06:13:23;;;;;;;5.90;2.07;;;;;;;;;;6184495;23;20179;-90
2023/10/29 06:15:51;;;;;;;3.87;1.87;;;;;;;;;;6184181;23;20179;-89
2023/10/29 06:18:19;;;;;;;10.57;3.27;;;;;;;;;;6184342;23;20190;-90
2023/10/29 06:20:49;;;;;;;8.63;2.47;;;;;;;;;;6184302;23;20257;-89
2023/10/29 06:23:18;;;;;;;14.10;4.40;;;;;;;;;;6184138;23;20229;-89
2023/10/29 06:26:11;;;;;;;15.17;4.20;;;;;;;;;;5101870;27;1348894;-88
2023/10/29 06:28:39;;;;;;;2.10;1.47;;;;;;;;;;5130180;28;20196;-89
2023/10/29 06:31:08;;;;;;;9.60;2.13;;;;;;;;;;5130561;28;20203;-89
2023/10/29 06:33:37;;;;;;;11.73;3.03;;;;;;;;;;5130040;28;20199;-88
2023/10/29 06:36:06;;;;;;;11.57;3.60;;;;;;;;;;5130003;28;20280;-89
2023/10/29 06:38:35;;;;;;;9.77;2.20;;;;;;;;;;5129975;28;20196;-88
2023/10/29 06:41:06;;;;;;;7.23;2.83;;;;;;;;;;5130038;28;20200;-88
2023/10/29 06:43:37;;;;;;;9.10;3.33;;;;;;;;;;5129622;28;20222;-88
2023/10/29 06:46:05;;;;;;;7.73;2.50;;;;;;;;;;5129746;28;20219;-88
2023/10/29 06:48:35;;;;;;;12.37;3.70;;;;;;;;;;5130196;28;20253;-90
2023/10/29 06:51:04;;;;;;;6.63;2.77;;;;;;;;;;5130346;28;20198;-89
2023/10/29 06:53:33;;;;;;;7.77;2.93;;;;;;;;;;5129629;28;20231;-88
2023/10/29 06:56:02;;;;;;;9.37;4.03;;;;;;;;;;5129128;28;20247;-89
2023/10/29 06:58:30;;;;;;;3.00;1.77;;;;;;;;;;5129722;28;20211;-88
2023/10/29 07:01:05;;;;;;;6.27;2.27;;;;;;;;;;5129351;28;20192;-88
2023/10/29 07:03:33;;;;;;;7.40;2.63;;;;;;;;;;5129193;28;20199;-87
2023/10/29 07:06:06;;;;;;;11.97;3.60;;;;;;;;;;5129225;28;20251;-89
2023/10/29 07:08:35;;;;;;;8.03;2.63;;;;;;;;;;5129497;28;20195;-88
2023/10/29 07:11:04;;;;;;;11.50;4.33;;;;;;;;;;5129651;28;20196;-88
2023/10/29 07:13:34;;;;;;;7.53;3.67;;;;;;;;;;5129721;28;20214;-88
2023/10/29 07:16:05;;;;;;;7.77;2.97;;;;;;;;;;5129020;28;20196;-88
2023/10/29 07:18:35;;;;;;;8.63;2.67;;;;;;;;;;5126079;28;20212;-88
2023/10/29 07:21:04;;;;;;;7.90;3.57;;;;;;;;;;5108897;28;20201;-89
2023/10/29 07:23:33;;;;;;;9.67;3.17;;;;;;;;;;5107999;28;20214;-87
2023/10/29 07:26:02;;;;;;;17.60;4.17;;;;;;;;;;5108279;28;20275;-88
2023/10/29 07:28:31;;;;;;;7.20;2.33;;;;;;;;;;5108662;28;20204;-88
2023/10/29 07:30:59;;;;;;;7.67;3.07;;;;;;;;;;5108739;28;20208;-88
2023/10/29 07:33:29;;;;;;;10.10;4.07;;;;;;;;;;5108096;28;20224;-88
2023/10/29 07:35:57;;;;;;;8.87;3.57;;;;;;;;;;5103062;28;20232;-88
2023/10/29 07:38:27;;;;;;;11.33;2.80;;;;;;;;;;5094716;28;20254;-88
2023/10/29 07:40:56;;;;;;;8.63;3.20;;;;;;;;;;5094365;28;20192;-87
2023/10/29 07:43:25;;;;;;;6.30;2.57;;;;;;;;;;5094125;28;20201;-88
2023/10/29 07:45:53;;;;;;;10.73;2.53;;;;;;;;;;5094706;28;20221;-87
2023/10/29 07:48:22;;;;;;;3.13;2.77;;;;;;;;;;5094752;28;20213;-88
2023/10/29 07:50:52;;;;;;;5.87;2.40;;;;;;;;;;5094365;28;20230;-88
2023/10/29 07:53:21;;;;;;;6.27;1.93;;;;;;;;;;5093923;28;20208;-89
2023/10/29 07:55:50;;;;;;;5.83;3.33;;;;;;;;;;5094270;28;20193;-88
2023/10/29 07:58:18;;;;;;;6.30;3.23;;;;;;;;;;5094472;28;20250;-88
2023/10/29 08:00:47;;;;;;;7.23;2.20;;;;;;;;;;5094100;28;20200;-89
2023/10/29 08:03:15;;;;;;;3.90;1.67;;;;;;;;;;5094259;28;20193;-88
2023/10/29 08:05:53;;;;;;;2.07;1.40;;;;;;;;;;5094541;28;20220;-89
2023/10/29 08:08:21;;;;;;;2.43;1.10;;;;;;;;;;5094384;28;20243;-89
2023/10/29 08:10:50;;;;;;;4.90;1.63;;;;;;;;;;5094310;28;20209;-88
2023/10/29 08:13:19;;;;;;;7.20;2.70;;;;;;;;;;5093831;28;20257;-89
2023/10/29 08:15:47;;;;;;;7.63;2.13;;;;;;;;;;5094450;28;20204;-88
2023/10/29 08:18:16;;;;;;;5.33;2.40;;;;;;;;;;5093970;28;20209;-88
2023/10/29 08:20:44;;;;;;;2.37;1.53;;;;;;;;;;5093695;28;20212;-88
2023/10/29 08:23:14;;;;;;;8.53;3.53;;;;;;;;;;5093519;28;20205;-88
2023/10/29 08:25:43;;;;;;;2.10;1.87;;;;;;;;;;5094023;28;20236;-89
2023/10/29 08:28:11;;;;;;;7.23;4.40;;;;;;;;;;5093853;28;20197;-88
2023/10/29 08:30:39;;;;;;;6.80;2.50;;;;;;;;;;5093598;28;20205;-88
2023/10/29 08:33:08;;;;;;;4.53;2.50;;;;;;;;;;5093616;28;20201;-88
2023/10/29 08:35:37;;;;;;;4.87;2.50;;;;;;;;;;5094024;28;20288;-89
2023/10/29 08:38:05;;;;;;;5.63;1.47;;;;;;;;;;5093427;28;20193;-89
2023/10/29 08:40:35;;;;;;;5.40;1.60;;;;;;;;;;5093364;28;20337;-88
2023/10/29 08:43:05;;;;;;;3.20;2.50;;;;;;;;;;5093576;28;20236;-88
2023/10/29 08:45:34;;;;;;;3.93;2.30;;;;;;;;;;5093288;28;20219;-88
2023/10/29 08:48:10;;;;;;;6.60;2.37;;;;;;;;;;5092289;28;20193;-88
2023/10/29 08:50:39;;;;;;;3.03;1.93;;;;;;;;;;5093240;28;20204;-89
2023/10/29 08:53:07;;;;;;;4.87;2.03;;;;;;;;;;5093543;28;20291;-89
2023/10/29 08:55:37;;;;;;;4.33;2.37;;;;;;;;;;5093789;28;20223;-89
2023/10/29 08:58:06;;;;;;;5.63;2.60;;;;;;;;;;5093394;28;20197;-88
2023/10/29 09:00:34;;;;;;;3.43;1.90;;;;;;;;;;5092788;28;20197;-88
2023/10/29 09:03:14;;;;;;;6.60;2.43;;;;;;;;;;5093125;28;20250;-89
2023/10/29 09:05:43;;;;;;;4.77;2.30;;;;;;;;;;5093234;28;20213;-88
2023/10/29 09:08:12;;;;;;;5.50;2.03;;;;;;;;;;5092777;28;20213;-89
2023/10/29 09:10:45;;;;;;;6.20;2.13;;;;;;;;;;5092598;28;20193;-89
2023/10/29 09:13:13;;;;;;;1.00;1.00;;;;;;;;;;5093195;28;20194;-89
2023/10/29 09:15:42;;;;;;;4.07;1.63;;;;;;;;;;5093766;28;20201;-88
2023/10/29 09:18:11;;;;;;;1.00;1.00;;;;;;;;;;5092781;28;20204;-89
2023/10/29 09:20:40;;;;;;;3.93;1.77;;;;;;;;;;5092524;28;20198;-89
2023/10/29 09:23:09;;;;;;;4.07;2.17;;;;;;;;;;5093077;28;20199;-88
2023/10/29 09:25:37;;;;;;;1.87;1.47;;;;;;;;;;5092857;28;20228;-89
2023/10/29 09:28:07;;;;;;;4.37;1.83;;;;;;;;;;5093036;28;20209;-89
2023/10/29 09:30:35;;;;;;;2.93;1.40;;;;;;;;;;5092775;28;20258;-89
2023/10/29 09:33:05;;;;;;;3.87;1.30;;;;;;;;;;5093068;28;20239;-89
2023/10/29 09:35:34;;;;;;;4.93;2.20;;;;;;;;;;5092735;28;20221;-89
2023/10/29 09:38:02;;;;;;;3.73;1.70;;;;;;;;;;5092356;28;20216;-87
2023/10/29 09:40:30;;;;;;;2.97;1.37;;;;;;;;;;5092169;28;20208;-89
2023/10/29 09:43:04;;;;;;;2.00;1.27;;;;;;;;;;5092377;28;20185;-89
2023/10/29 09:45:34;;;;;;;2.43;1.60;;;;;;;;;;5092756;28;20210;-90
2023/10/29 09:48:03;;;;;;;4.70;1.73;;;;;;;;;;5092566;28;20292;-90
2023/10/29 09:50:35;;;;;;;4.10;1.93;;;;;;;;;;5092173;28;20205;-89
2023/10/29 09:53:04;;;;;;;3.40;1.83;;;;;;;;;;5092650;28;20300;-89
2023/10/29 09:55:34;;;;;;;3.93;1.83;;;;;;;;;;5092830;28;20216;-87
2023/10/29 09:58:04;;;;;;;1.13;1.00;;;;;;;;;;5091940;28;20218;-88
2023/10/29 10:00:34;;;;;;;3.73;1.83;;;;;;;;;;5092140;28;20201;-89
2023/10/29 10:03:02;;;;;;;3.17;1.40;;;;;;;;;;5092109;28;20208;-89
2023/10/29 10:05:32;;;;;;;5.73;1.83;;;;;;;;;;5092684;28;20196;-88
2023/10/29 10:08:01;;;;;;;5.23;1.47;;;;;;;;;;5091905;28;20201;-90
2023/10/29 10:10:38;;;;;;;10.47;2.70;;;;;;;;;;5092193;28;20197;-89
2023/10/29 10:13:06;;;;;;;5.73;3.10;;;;;;;;;;5092400;28;20196;-88
2023/10/29 10:15:37;;;;;;;10.80;1.87;;;;;;;;;;5092363;28;20274;-89
2023/10/29 10:18:06;;;;;;;3.77;1.23;;;;;;;;;;5091516;28;20194;-89
2023/10/29 10:20:35;;;;;;;8.10;2.63;;;;;;;;;;5092297;28;20221;-89
2023/10/29 10:23:05;;;;;;;5.43;1.50;;;;;;;;;;5092085;28;20190;-89
2023/10/29 10:25:34;;;;;;;6.53;2.10;;;;;;;;;;5092049;28;20225;-89
2023/10/29 10:28:04;;;;;;;6.07;3.10;;;;;;;;;;5091645;28;20266;-89
2023/10/29 10:30:34;;;;;;;6.23;2.20;;;;;;;;;;5092197;28;20209;-89
2023/10/29 10:33:11;;;;;;;9.43;1.70;;;;;;;;;;5092381;28;20201;-88
2023/10/29 10:35:41;;;;;;;4.60;2.17;;;;;;;;;;5091819;28;20193;-88
2023/10/29 10:38:09;;;;;;;3.53;1.57;;;;;;;;;;5091276;28;20208;-87
2023/10/29 10:40:38;;;;;;;5.03;1.77;;;;;;;;;;5092597;28;20205;-89
2023/10/29 10:43:06;;;;;;;5.33;2.27;;;;;;;;;;5092540;28;20209;-88
2023/10/29 10:45:35;;;;;;;9.00;2.97;;;;;;;;;;5091913;28;20208;-90
2023/10/29 10:48:05;;;;;;;6.40;2.53;;;;;;;;;;5091524;28;20228;-89
2023/10/29 10:50:35;;;;;;;7.47;2.77;;;;;;;;;;5092099;28;20197;-89
2023/10/29 10:53:04;;;;;;;8.23;2.33;;;;;;;;;;5092246;28;20262;-89
2023/10/29 10:55:33;;;;;;;7.40;2.40;;;;;;;;;;5091903;28;20575;-90
2023/10/29 10:58:23;;;;;;;4.67;2.03;;;;;;;;;;5091098;28;20217;-89
2023/10/29 11:00:52;;;;;;;7.60;2.70;;;;;;;;;;5092341;28;20197;-89
2023/10/29 11:03:21;;;;;;;7.30;3.03;;;;;;;;;;5091958;28;20208;-89
2023/10/29 11:06:02;;;;;;;5.67;2.60;;;;;;;;;;5091593;28;20193;-89
2023/10/29 11:08:31;;;;;;;8.23;2.53;;;;;;;;;;5091339;28;20250;-88
2023/10/29 11:11:00;;;;;;;4.77;2.20;;;;;;;;;;5092981;28;20201;-89
2023/10/29 11:13:29;;;;;;;6.33;3.57;;;;;;;;;;5096131;28;20206;-89
2023/10/29 11:15:57;;;;;;;9.67;2.10;;;;;;;;;;5094783;28;20194;-90
2023/10/29 11:18:30;;;;;;;5.67;2.70;;;;;;;;;;5095361;28;20205;-88
2023/10/29 11:21:00;;;;;;;9.80;4.03;;;;;;;;;;5095383;28;20205;-86
2023/10/29 11:23:31;;;;;;;6.20;2.87;;;;;;;;;;5095442;28;20198;-88
2023/10/29 11:26:19;;;;;;;9.60;3.17;;;;;;;;;;5094382;28;20236;-88
2023/10/29 11:28:48;;;;;;;6.33;3.37;;;;;;;;;;5095473;28;20379;-89
2023/10/29 11:31:17;;;;;;;8.40;3.10;;;;;;;;;;5095398;28;20252;-90
2023/10/29 11:33:46;;;;;;;5.03;2.40;;;;;;;;;;5095328;28;20190;-89
2023/10/29 11:36:32;;;;;;;9.13;3.87;;;;;;;;;;5095012;28;20205;-88
2023/10/29 11:39:20;;;;;;;11.13;3.70;;;;;;;;;;5095307;28;20200;-89
2023/10/29 11:41:52;;;;;;;7.57;3.17;;;;;;;;;;5095237;28;20198;-88
2023/10/29 11:44:24;;;;;;;12.17;3.93;;;;;;;;;;5095326;28;20232;-89
2023/10/29 11:47:02;;;;;;;11.57;3.50;;;;;;;;;;5095012;28;20229;-89
2023/10/29 11:49:32;;;;;;;4.40;1.73;;;;;;;;;;5095296;28;20243;-88
2023/10/29 11:52:02;;;;;;;7.77;2.70;;;;;;;;;;5094593;28;20208;-88
2023/10/29 11:54:32;;;;;;;8.43;3.00;;;;;;;;;;5094306;28;20197;-88
2023/10/29 11:57:02;;;;;;;8.90;3.90;;;;;;;;;;5094255;28;20202;-88
2023/10/29 11:59:31;;;;;;;8.43;3.57;;;;;;;;;;5094314;28;20231;-88
2023/10/29 12:01:59;;;;;;;9.53;2.83;;;;;;;;;;5095207;28;20229;-88
2023/10/29 12:04:30;;;;;;;10.27;3.07;;;;;;;;;;5093746;28;20206;-87
2023/10/29 12:06:59;;;;;;;4.93;1.83;;;;;;;;;;5094004;28;20222;-88
2023/10/29 12:09:28;;;;;;;8.73;2.97;;;;;;;;;;5094088;28;20204;-88
2023/10/29 12:11:56;;;;;;;7.60;3.17;;;;;;;;;;5094171;28;20201;-87
2023/10/29 12:14:43;;;;;;;9.03;3.80;;;;;;;;;;5093934;28;20202;-86
2023/10/29 12:17:12;;;;;;;9.90;3.00;;;;;;;;;;5094264;28;20236;-83
2023/10/29 12:19:42;;;;;;;11.77;4.23;;;;;;;;;;5094024;28;20217;-85
2023/10/29 12:22:18;;;;;;;13.50;3.53;;;;;;;;;;5093716;28;20197;-86
2023/10/29 12:24:46;;;;;;;7.87;2.60;;;;;;;;;;5093119;28;20234;-84
2023/10/29 12:27:15;;;;;;;4.73;1.83;;;;;;;;;;5093273;28;20216;-85
2023/10/29 12:29:45;;;;;;;8.87;3.33;;;;;;;;;;5094337;28;20207;-85
2023/10/29 12:32:17;;;;;;;7.73;2.57;;;;;;;;;;5093686;28;20212;-85
2023/10/29 12:34:48;;;;;;;12.73;4.72;;;;;;;;;;5092896;28;20445;-86
2023/10/29 12:37:23;;;;;;;11.87;4.53;;;;;;;;;;5094132;28;20190;-87
2023/10/29 12:39:54;;;;;;;6.13;3.00;;;;;;;;;;5093947;28;20198;-87
2023/10/29 12:42:23;;;;;;;9.50;4.20;;;;;;;;;;5093253;28;20212;-87
2023/10/29 12:44:54;;;;;;;11.27;4.00;;;;;;;;;;5093194;28;20197;-86
2023/10/29 12:47:23;;;;;;;8.13;2.60;;;;;;;;;;5093264;28;20267;-86
2023/10/29 12:49:59;;;;;;;4.23;2.00;;;;;;;;;;5094064;28;20206;-86
2023/10/29 12:52:30;;;;;;;9.00;3.10;;;;;;;;;;5092793;28;20193;-87
2023/10/29 12:54:58;;;;;;;8.77;3.13;;;;;;;;;;5093838;28;20202;-87
2023/10/29 12:57:27;;;;;;;10.20;3.90;;;;;;;;;;5092890;28;20251;-87
2023/10/29 12:59:57;;;;;;;6.73;1.83;;;;;;;;;;5092972;28;20207;-87
2023/10/29 13:02:26;;;;;;;11.90;2.90;;;;;;;;;;5092676;28;20275;-87
2023/10/29 13:04:55;;;;;;;12.07;3.57;;;;;;;;;;5092580;28;20204;-87
2023/10/29 13:07:23;;;;;;;13.67;4.73;;;;;;;;;;5092335;28;20197;-87
2023/10/29 13:09:52;;;;;;;11.20;4.60;;;;;;;;;;5092933;28;20202;-87
2023/10/29 13:12:20;;;;;;;11.13;3.93;;;;;;;;;;5092088;28;20199;-87
2023/10/29 13:14:49;;;;;;;4.23;1.30;;;;;;;;;;5093091;28;20198;-87
2023/10/29 13:17:19;;;;;;;8.37;3.23;;;;;;;;;;5092983;28;20270;-87
2023/10/29 13:19:47;;;;;;;9.87;3.40;;;;;;;;;;5092739;28;20226;-87
2023/10/29 13:22:16;;;;;;;7.43;2.10;;;;;;;;;;5092241;28;20208;-87
2023/10/29 13:24:44;;;;;;;10.10;3.93;;;;;;;;;;5092396;28;20243;-88
2023/10/29 13:27:13;;;;;;;8.53;4.17;;;;;;;;;;5092678;28;20236;-87
2023/10/29 13:29:43;;;;;;;9.10;3.00;;;;;;;;;;5092234;28;20237;-87
2023/10/29 13:32:11;;;;;;;7.70;2.80;;;;;;;;;;5092028;28;20197;-87
2023/10/29 13:34:41;;;;;;;5.73;2.30;;;;;;;;;;5091930;28;20201;-87
2023/10/29 13:37:09;;;;;;;8.77;2.73;;;;;;;;;;5092390;28;20202;-87
2023/10/29 13:39:38;;;;;;;12.37;3.83;;;;;;;;;;5092881;28;20197;-87
2023/10/29 13:42:06;;;;;;;10.47;3.37;;;;;;;;;;5091900;28;20197;-87
2023/10/29 13:44:38;;;;;;;11.60;2.80;;;;;;;;;;5092330;28;20344;-87
2023/10/29 13:47:07;;;;;;;6.63;2.40;;;;;;;;;;5092399;28;20270;-87
2023/10/29 13:49:36;;;;;;;10.93;3.43;;;;;;;;;;5092007;28;20220;-87
2023/10/29 13:52:06;;;;;;;7.10;3.23;;;;;;;;;;5092022;28;20213;-87
2023/10/29 13:54:35;;;;;;;8.27;2.60;;;;;;;;;;5092290;28;20209;-87
2023/10/29 13:57:03;;;;;;;8.13;2.13;;;;;;;;;;5091946;28;20275;-87
2023/10/29 13:59:32;;;;;;;12.50;3.97;;;;;;;;;;5091682;28;20229;-87
2023/10/29 14:02:00;;;;;;;7.10;1.80;;;;;;;;;;5091814;28;20209;-87
2023/10/29 14:04:29;;;;;;;8.17;2.77;;;;;;;;;;5091785;28;20201;-87
2023/10/29 14:06:58;;;;;;;9.33;2.43;;;;;;;;;;5091868;28;20197;-87
2023/10/29 14:09:27;;;;;;;9.60;3.93;;;;;;;;;;5091327;28;20217;-87
2023/10/29 14:11:56;;;;;;;6.00;2.00;;;;;;;;;;5091589;28;20212;-87
2023/10/29 14:14:24;;;;;;;4.87;1.70;;;;;;;;;;5091838;28;20254;-87
2023/10/29 14:16:53;;;;;;;10.10;3.20;;;;;;;;;;5092279;28;20208;-87
2023/10/29 14:19:23;;;;;;;7.90;3.10;;;;;;;;;;5091017;28;20273;-87
2023/10/29 14:21:52;;;;;;;6.90;2.53;;;;;;;;;;5091132;28;20205;-86
2023/10/29 14:24:21;;;;;;;3.13;1.90;;;;;;;;;;5091660;28;20235;-87
2023/10/29 14:26:52;;;;;;;7.77;3.10;;;;;;;;;;5091789;28;20260;-87
2023/10/29 14:29:20;;;;;;;3.40;1.50;;;;;;;;;;5091117;28;20236;-87
2023/10/29 14:31:49;;;;;;;9.37;3.27;;;;;;;;;;5091354;28;20193;-87
2023/10/29 14:34:17;;;;;;;7.73;2.83;;;;;;;;;;5091789;28;20201;-87
2023/10/29 14:36:46;;;;;;;5.73;2.43;;;;;;;;;;5091672;28;20201;-87
2023/10/29 14:39:15;;;;;;;3.90;1.47;;;;;;;;;;5091154;28;20201;-87
2023/10/29 14:41:44;;;;;;;5.67;2.43;;;;;;;;;;5091560;28;20206;-87
2023/10/29 14:44:15;;;;;;;8.07;3.50;;;;;;;;;;5091942;28;20254;-87
2023/10/29 14:46:43;;;;;;;7.43;4.10;;;;;;;;;;5093480;28;20193;-87
2023/10/29 14:49:11;;;;;;;7.20;3.37;;;;;;;;;;5094926;28;20217;-87
2023/10/29 14:51:40;;;;;;;8.70;3.23;;;;;;;;;;5095537;28;20201;-87
2023/10/29 14:54:08;;;;;;;10.23;3.30;;;;;;;;;;5095551;28;20243;-87